sensor_id;sensor_type;location;lat;lon;timestamp;temperature;humidity
67870;DHT22;54673;52.262;6.830;2023-06-10T00:00:54;27.10;37.60
67870;DHT22;54673;52.262;6.830;2023-06-10T00:03:21;27.10;37.60
67870;DHT22;54673;52.262;6.830;2023-06-10T00:05:49;27.10;37.60
67870;DHT22;54673;52.262;6.830;2023-06-10T00:08:15;27.10;37.50
67870;DHT22;54673;52.262;6.830;2023-06-10T00:10:41;27.10;37.50
67870;DHT22;54673;52.262;6.830;2023-06-10T00:13:07;27.10;37.50
67870;DHT22;54673;52.262;6.830;2023-06-10T00:15:36;27.10;37.50
67870;DHT22;54673;52.262;6.830;2023-06-10T00:18:04;27.10;37.50
67870;DHT22;54673;52.262;6.830;2023-06-10T00:20:30;27.10;37.50
67870;DHT22;54673;52.262;6.830;2023-06-10T00:22:57;27.10;37.50
67870;DHT22;54673;52.262;6.830;2023-06-10T00:25:24;27.10;37.50
67870;DHT22;54673;52.262;6.830;2023-06-10T00:27:51;27.10;37.50
67870;DHT22;54673;52.262;6.830;2023-06-10T00:30:16;27.10;37.50
67870;DHT22;54673;52.262;6.830;2023-06-10T00:32:42;27.10;37.50
67870;DHT22;54673;52.262;6.830;2023-06-10T00:35:07;27.10;37.50
67870;DHT22;54673;52.262;6.830;2023-06-10T00:37:33;27.10;37.50
67870;DHT22;54673;52.262;6.830;2023-06-10T00:40:03;27.00;37.40
67870;DHT22;54673;52.262;6.830;2023-06-10T00:42:28;27.00;37.40
67870;DHT22;54673;52.262;6.830;2023-06-10T00:44:54;27.00;37.40
67870;DHT22;54673;52.262;6.830;2023-06-10T00:47:20;27.10;37.50
67870;DHT22;54673;52.262;6.830;2023-06-10T00:49:47;27.00;37.40
67870;DHT22;54673;52.262;6.830;2023-06-10T00:52:14;27.10;37.40
67870;DHT22;54673;52.262;6.830;2023-06-10T00:54:40;27.10;37.50
67870;DHT22;54673;52.262;6.830;2023-06-10T00:57:06;27.10;37.50
67870;DHT22;54673;52.262;6.830;2023-06-10T00:59:32;27.10;37.50
67870;DHT22;54673;52.262;6.830;2023-06-10T01:01:57;27.10;37.50
67870;DHT22;54673;52.262;6.830;2023-06-10T01:04:23;27.10;37.50
67870;DHT22;54673;52.262;6.830;2023-06-10T01:14:49;27.10;37.50
67870;DHT22;54673;52.262;6.830;2023-06-10T01:17:17;27.00;37.40
67870;DHT22;54673;52.262;6.830;2023-06-10T01:19:43;27.10;37.50
67870;DHT22;54673;52.262;6.830;2023-06-10T01:22:09;27.10;37.50
67870;DHT22;54673;52.262;6.830;2023-06-10T01:24:36;27.00;37.40
67870;DHT22;54673;52.262;6.830;2023-06-10T01:27:06;27.00;37.40
67870;DHT22;54673;52.262;6.830;2023-06-10T01:29:39;27.50;37.80
67870;DHT22;54673;52.262;6.830;2023-06-10T01:32:17;27.00;37.50
67870;DHT22;54673;52.262;6.830;2023-06-10T01:34:44;27.00;37.50
67870;DHT22;54673;52.262;6.830;2023-06-10T01:37:12;27.00;37.60
67870;DHT22;54673;52.262;6.830;2023-06-10T01:39:39;27.00;37.60
67870;DHT22;54673;52.262;6.830;2023-06-10T01:42:05;26.90;37.50
67870;DHT22;54673;52.262;6.830;2023-06-10T01:44:32;27.00;37.60
67870;DHT22;54673;52.262;6.830;2023-06-10T01:46:57;27.00;37.60
67870;DHT22;54673;52.262;6.830;2023-06-10T01:49:23;27.00;37.50
67870;DHT22;54673;52.262;6.830;2023-06-10T01:51:49;27.00;37.50
67870;DHT22;54673;52.262;6.830;2023-06-10T01:54:15;27.00;37.50
67870;DHT22;54673;52.262;6.830;2023-06-10T01:56:41;27.00;37.50
67870;DHT22;54673;52.262;6.830;2023-06-10T01:59:06;27.00;37.60
67870;DHT22;54673;52.262;6.830;2023-06-10T02:01:33;27.00;37.60
67870;DHT22;54673;52.262;6.830;2023-06-10T02:03:58;27.00;37.70
67870;DHT22;54673;52.262;6.830;2023-06-10T02:06:24;26.90;37.60
67870;DHT22;54673;52.262;6.830;2023-06-10T02:08:49;27.00;37.60
67870;DHT22;54673;52.262;6.830;2023-06-10T02:11:15;26.90;37.60
67870;DHT22;54673;52.262;6.830;2023-06-10T02:13:41;27.00;37.70
67870;DHT22;54673;52.262;6.830;2023-06-10T02:16:06;26.90;37.60
67870;DHT22;54673;52.262;6.830;2023-06-10T02:18:33;27.00;37.60
67870;DHT22;54673;52.262;6.830;2023-06-10T02:20:59;26.90;37.60
67870;DHT22;54673;52.262;6.830;2023-06-10T02:23:24;27.00;37.70
67870;DHT22;54673;52.262;6.830;2023-06-10T02:25:50;27.00;37.80
67870;DHT22;54673;52.262;6.830;2023-06-10T02:28:16;26.90;37.60
67870;DHT22;54673;52.262;6.830;2023-06-10T02:30:42;26.90;37.60
67870;DHT22;54673;52.262;6.830;2023-06-10T02:33:08;26.90;37.70
67870;DHT22;54673;52.262;6.830;2023-06-10T02:35:38;26.90;37.70
67870;DHT22;54673;52.262;6.830;2023-06-10T02:38:04;26.90;37.70
67870;DHT22;54673;52.262;6.830;2023-06-10T02:40:30;26.90;37.80
67870;DHT22;54673;52.262;6.830;2023-06-10T02:42:55;26.80;37.80
67870;DHT22;54673;52.262;6.830;2023-06-10T02:45:21;26.90;37.80
67870;DHT22;54673;52.262;6.830;2023-06-10T02:47:46;26.80;37.80
67870;DHT22;54673;52.262;6.830;2023-06-10T02:50:12;26.80;37.80
67870;DHT22;54673;52.262;6.830;2023-06-10T02:52:37;26.80;37.80
67870;DHT22;54673;52.262;6.830;2023-06-10T02:55:04;26.80;37.90
67870;DHT22;54673;52.262;6.830;2023-06-10T02:57:29;26.80;37.90
67870;DHT22;54673;52.262;6.830;2023-06-10T02:59:55;26.80;37.90
67870;DHT22;54673;52.262;6.830;2023-06-10T03:02:20;26.80;37.90
67870;DHT22;54673;52.262;6.830;2023-06-10T03:04:47;26.80;37.90
67870;DHT22;54673;52.262;6.830;2023-06-10T03:07:13;26.80;37.90
67870;DHT22;54673;52.262;6.830;2023-06-10T03:09:39;26.80;37.90
67870;DHT22;54673;52.262;6.830;2023-06-10T03:12:05;26.80;37.90
67870;DHT22;54673;52.262;6.830;2023-06-10T03:14:31;26.80;37.90
67870;DHT22;54673;52.262;6.830;2023-06-10T03:16:56;26.80;38.00
67870;DHT22;54673;52.262;6.830;2023-06-10T03:19:22;26.80;37.90
67870;DHT22;54673;52.262;6.830;2023-06-10T03:21:50;26.80;38.60
67870;DHT22;54673;52.262;6.830;2023-06-10T03:24:20;26.80;38.00
67870;DHT22;54673;52.262;6.830;2023-06-10T03:26:45;26.80;38.10
67870;DHT22;54673;52.262;6.830;2023-06-10T03:29:11;26.90;38.20
67870;DHT22;54673;52.262;6.830;2023-06-10T03:31:37;26.80;38.10
67870;DHT22;54673;52.262;6.830;2023-06-10T03:34:04;26.80;38.10
67870;DHT22;54673;52.262;6.830;2023-06-10T03:36:29;26.70;38.20
67870;DHT22;54673;52.262;6.830;2023-06-10T03:38:55;26.60;38.10
67870;DHT22;54673;52.262;6.830;2023-06-10T03:41:22;26.60;38.00
67870;DHT22;54673;52.262;6.830;2023-06-10T03:43:48;26.60;38.10
67870;DHT22;54673;52.262;6.830;2023-06-10T03:46:13;26.50;38.00
67870;DHT22;54673;52.262;6.830;2023-06-10T03:48:39;26.50;37.90
67870;DHT22;54673;52.262;6.830;2023-06-10T03:51:05;26.40;37.90
67870;DHT22;54673;52.262;6.830;2023-06-10T03:53:30;26.40;37.90
67870;DHT22;54673;52.262;6.830;2023-06-10T03:55:56;26.40;37.80
67870;DHT22;54673;52.262;6.830;2023-06-10T03:58:22;26.40;37.70
67870;DHT22;54673;52.262;6.830;2023-06-10T04:00:48;26.40;37.60
67870;DHT22;54673;52.262;6.830;2023-06-10T04:03:14;26.40;37.60
67870;DHT22;54673;52.262;6.830;2023-06-10T04:05:41;26.40;37.60
67870;DHT22;54673;52.262;6.830;2023-06-10T04:08:07;26.30;37.60
67870;DHT22;54673;52.262;6.830;2023-06-10T04:10:33;26.30;37.60
67870;DHT22;54673;52.262;6.830;2023-06-10T04:12:58;26.30;37.60
67870;DHT22;54673;52.262;6.830;2023-06-10T04:15:25;26.30;38.10
67870;DHT22;54673;52.262;6.830;2023-06-10T04:17:50;26.20;37.60
67870;DHT22;54673;52.262;6.830;2023-06-10T04:20:16;26.20;37.60
67870;DHT22;54673;52.262;6.830;2023-06-10T04:22:41;26.20;37.60
67870;DHT22;54673;52.262;6.830;2023-06-10T04:25:09;26.20;37.60
67870;DHT22;54673;52.262;6.830;2023-06-10T04:27:34;26.20;37.70
67870;DHT22;54673;52.262;6.830;2023-06-10T04:30:00;26.20;37.60
67870;DHT22;54673;52.262;6.830;2023-06-10T04:32:26;26.20;37.60
67870;DHT22;54673;52.262;6.830;2023-06-10T04:34:52;26.20;37.60
67870;DHT22;54673;52.262;6.830;2023-06-10T04:37:17;26.10;37.60
67870;DHT22;54673;52.262;6.830;2023-06-10T04:39:43;26.20;37.60
67870;DHT22;54673;52.262;6.830;2023-06-10T04:42:09;26.20;37.60
67870;DHT22;54673;52.262;6.830;2023-06-10T04:44:34;26.20;37.70
67870;DHT22;54673;52.262;6.830;2023-06-10T04:47:00;26.10;37.70
67870;DHT22;54673;52.262;6.830;2023-06-10T04:49:26;26.10;37.70
67870;DHT22;54673;52.262;6.830;2023-06-10T04:51:51;26.10;37.70
67870;DHT22;54673;52.262;6.830;2023-06-10T04:54:17;26.20;37.70
67870;DHT22;54673;52.262;6.830;2023-06-10T04:56:42;26.10;37.70
67870;DHT22;54673;52.262;6.830;2023-06-10T04:59:08;26.10;37.80
67870;DHT22;54673;52.262;6.830;2023-06-10T05:01:33;26.10;37.80
67870;DHT22;54673;52.262;6.830;2023-06-10T05:03:59;26.00;37.80
67870;DHT22;54673;52.262;6.830;2023-06-10T05:06:25;26.00;37.90
67870;DHT22;54673;52.262;6.830;2023-06-10T05:08:50;26.10;37.90
67870;DHT22;54673;52.262;6.830;2023-06-10T05:11:16;26.10;38.80
67870;DHT22;54673;52.262;6.830;2023-06-10T05:13:42;26.10;37.80
67870;DHT22;54673;52.262;6.830;2023-06-10T05:16:09;26.10;37.80
67870;DHT22;54673;52.262;6.830;2023-06-10T05:18:34;26.10;37.80
67870;DHT22;54673;52.262;6.830;2023-06-10T05:21:01;26.10;37.80
67870;DHT22;54673;52.262;6.830;2023-06-10T05:23:27;26.10;37.80
67870;DHT22;54673;52.262;6.830;2023-06-10T05:25:53;26.10;37.90
67870;DHT22;54673;52.262;6.830;2023-06-10T05:28:18;26.10;37.90
67870;DHT22;54673;52.262;6.830;2023-06-10T05:30:45;26.10;37.90
67870;DHT22;54673;52.262;6.830;2023-06-10T05:33:10;26.10;37.80
67870;DHT22;54673;52.262;6.830;2023-06-10T05:35:36;26.20;37.90
67870;DHT22;54673;52.262;6.830;2023-06-10T05:38:02;26.20;37.90
67870;DHT22;54673;52.262;6.830;2023-06-10T05:40:28;26.20;38.00
67870;DHT22;54673;52.262;6.830;2023-06-10T05:42:53;26.20;38.00
67870;DHT22;54673;52.262;6.830;2023-06-10T05:45:19;26.20;37.90
67870;DHT22;54673;52.262;6.830;2023-06-10T05:47:45;26.30;38.00
67870;DHT22;54673;52.262;6.830;2023-06-10T05:50:10;26.30;37.90
67870;DHT22;54673;52.262;6.830;2023-06-10T05:52:36;26.30;37.90
67870;DHT22;54673;52.262;6.830;2023-06-10T05:55:03;26.30;37.80
67870;DHT22;54673;52.262;6.830;2023-06-10T05:57:28;26.30;37.80
67870;DHT22;54673;52.262;6.830;2023-06-10T05:59:54;26.30;38.00
67870;DHT22;54673;52.262;6.830;2023-06-10T06:02:20;26.30;38.00
67870;DHT22;54673;52.262;6.830;2023-06-10T06:04:45;26.30;38.00
67870;DHT22;54673;52.262;6.830;2023-06-10T06:07:11;26.30;38.00
67870;DHT22;54673;52.262;6.830;2023-06-10T06:09:36;26.30;37.90
67870;DHT22;54673;52.262;6.830;2023-06-10T06:12:02;26.40;38.00
67870;DHT22;54673;52.262;6.830;2023-06-10T06:14:30;26.40;38.00
67870;DHT22;54673;52.262;6.830;2023-06-10T06:16:56;26.40;38.10
67870;DHT22;54673;52.262;6.830;2023-06-10T06:19:21;26.40;38.00
67870;DHT22;54673;52.262;6.830;2023-06-10T06:21:47;26.40;38.00
67870;DHT22;54673;52.262;6.830;2023-06-10T06:24:13;26.40;38.00
67870;DHT22;54673;52.262;6.830;2023-06-10T06:26:39;26.40;38.00
67870;DHT22;54673;52.262;6.830;2023-06-10T06:29:04;26.40;38.10
67870;DHT22;54673;52.262;6.830;2023-06-10T06:31:30;26.40;38.00
67870;DHT22;54673;52.262;6.830;2023-06-10T06:33:56;26.40;37.90
67870;DHT22;54673;52.262;6.830;2023-06-10T06:36:21;26.50;37.90
67870;DHT22;54673;52.262;6.830;2023-06-10T06:38:47;26.50;37.70
67870;DHT22;54673;52.262;6.830;2023-06-10T06:41:12;26.50;37.60
67870;DHT22;54673;52.262;6.830;2023-06-10T06:43:38;26.50;37.40
67870;DHT22;54673;52.262;6.830;2023-06-10T06:46:03;26.50;37.30
67870;DHT22;54673;52.262;6.830;2023-06-10T06:48:29;26.50;37.30
67870;DHT22;54673;52.262;6.830;2023-06-10T06:50:55;26.60;37.10
67870;DHT22;54673;52.262;6.830;2023-06-10T06:53:21;26.60;37.00
67870;DHT22;54673;52.262;6.830;2023-06-10T06:55:47;26.60;37.00
67870;DHT22;54673;52.262;6.830;2023-06-10T06:58:12;26.60;36.90
67870;DHT22;54673;52.262;6.830;2023-06-10T07:00:38;26.70;36.90
67870;DHT22;54673;52.262;6.830;2023-06-10T07:03:03;26.70;36.80
67870;DHT22;54673;52.262;6.830;2023-06-10T07:05:29;26.80;36.80
67870;DHT22;54673;52.262;6.830;2023-06-10T07:07:56;26.70;36.60
67870;DHT22;54673;52.262;6.830;2023-06-10T07:10:23;26.80;36.50
67870;DHT22;54673;52.262;6.830;2023-06-10T07:12:48;26.80;36.50
67870;DHT22;54673;52.262;6.830;2023-06-10T07:15:14;26.80;36.50
67870;DHT22;54673;52.262;6.830;2023-06-10T07:17:40;26.80;36.60
67870;DHT22;54673;52.262;6.830;2023-06-10T07:20:06;26.80;36.60
67870;DHT22;54673;52.262;6.830;2023-06-10T07:22:31;26.80;36.60
67870;DHT22;54673;52.262;6.830;2023-06-10T07:24:57;26.80;36.50
67870;DHT22;54673;52.262;6.830;2023-06-10T07:27:23;26.90;36.40
67870;DHT22;54673;52.262;6.830;2023-06-10T07:29:48;26.90;36.50
67870;DHT22;54673;52.262;6.830;2023-06-10T07:32:14;26.90;36.40
67870;DHT22;54673;52.262;6.830;2023-06-10T07:34:40;26.80;36.60
67870;DHT22;54673;52.262;6.830;2023-06-10T07:37:05;26.80;36.60
67870;DHT22;54673;52.262;6.830;2023-06-10T07:39:31;26.80;36.60
67870;DHT22;54673;52.262;6.830;2023-06-10T07:41:57;26.80;36.80
67870;DHT22;54673;52.262;6.830;2023-06-10T07:44:23;26.80;36.70
67870;DHT22;54673;52.262;6.830;2023-06-10T07:46:48;26.80;36.70
67870;DHT22;54673;52.262;6.830;2023-06-10T07:49:14;26.80;36.70
67870;DHT22;54673;52.262;6.830;2023-06-10T07:51:40;26.80;36.70
67870;DHT22;54673;52.262;6.830;2023-06-10T07:54:05;26.80;36.70
67870;DHT22;54673;52.262;6.830;2023-06-10T07:56:31;26.80;36.70
67870;DHT22;54673;52.262;6.830;2023-06-10T07:58:57;26.80;36.70
67870;DHT22;54673;52.262;6.830;2023-06-10T08:01:23;26.80;36.90
67870;DHT22;54673;52.262;6.830;2023-06-10T08:03:49;26.80;37.10
67870;DHT22;54673;52.262;6.830;2023-06-10T08:06:14;26.80;37.20
67870;DHT22;54673;52.262;6.830;2023-06-10T08:08:42;26.80;37.00
67870;DHT22;54673;52.262;6.830;2023-06-10T08:11:12;26.80;36.90
67870;DHT22;54673;52.262;6.830;2023-06-10T08:13:37;26.80;36.90
67870;DHT22;54673;52.262;6.830;2023-06-10T08:16:04;26.90;37.10
67870;DHT22;54673;52.262;6.830;2023-06-10T08:18:29;26.90;37.00
67870;DHT22;54673;52.262;6.830;2023-06-10T08:20:55;27.00;37.10
67870;DHT22;54673;52.262;6.830;2023-06-10T08:23:21;26.90;37.00
67870;DHT22;54673;52.262;6.830;2023-06-10T08:25:46;27.00;37.00
67870;DHT22;54673;52.262;6.830;2023-06-10T08:28:12;27.00;37.00
67870;DHT22;54673;52.262;6.830;2023-06-10T08:30:38;27.00;37.00
67870;DHT22;54673;52.262;6.830;2023-06-10T08:33:03;27.10;36.90
67870;DHT22;54673;52.262;6.830;2023-06-10T08:35:29;27.10;36.90
67870;DHT22;54673;52.262;6.830;2023-06-10T08:37:55;27.10;36.90
67870;DHT22;54673;52.262;6.830;2023-06-10T08:40:20;27.10;37.00
67870;DHT22;54673;52.262;6.830;2023-06-10T08:42:53;27.10;36.80
67870;DHT22;54673;52.262;6.830;2023-06-10T08:45:24;27.10;36.90
67870;DHT22;54673;52.262;6.830;2023-06-10T08:47:51;27.10;36.90
67870;DHT22;54673;52.262;6.830;2023-06-10T08:50:19;27.10;36.70
67870;DHT22;54673;52.262;6.830;2023-06-10T08:52:48;27.10;36.80
67870;DHT22;54673;52.262;6.830;2023-06-10T08:55:29;27.10;37.00
67870;DHT22;54673;52.262;6.830;2023-06-10T08:57:55;27.10;36.80
67870;DHT22;54673;52.262;6.830;2023-06-10T09:00:21;27.10;36.80
67870;DHT22;54673;52.262;6.830;2023-06-10T09:02:47;27.10;36.90
67870;DHT22;54673;52.262;6.830;2023-06-10T09:05:13;27.10;36.90
67870;DHT22;54673;52.262;6.830;2023-06-10T09:07:39;27.10;36.90
67870;DHT22;54673;52.262;6.830;2023-06-10T09:10:05;27.10;37.00
67870;DHT22;54673;52.262;6.830;2023-06-10T09:12:33;27.40;37.40
67870;DHT22;54673;52.262;6.830;2023-06-10T09:15:01;27.60;37.70
67870;DHT22;54673;52.262;6.830;2023-06-10T09:17:27;27.70;38.60
67870;DHT22;54673;52.262;6.830;2023-06-10T09:19:52;27.60;38.50
67870;DHT22;54673;52.262;6.830;2023-06-10T09:22:23;27.70;38.50
67870;DHT22;54673;52.262;6.830;2023-06-10T09:24:49;27.70;38.20
67870;DHT22;54673;52.262;6.830;2023-06-10T09:27:15;27.70;37.70
67870;DHT22;54673;52.262;6.830;2023-06-10T09:29:51;27.70;37.50
67870;DHT22;54673;52.262;6.830;2023-06-10T09:32:18;27.70;37.60
67870;DHT22;54673;52.262;6.830;2023-06-10T09:34:44;27.70;37.50
67870;DHT22;54673;52.262;6.830;2023-06-10T09:37:10;27.70;37.30
67870;DHT22;54673;52.262;6.830;2023-06-10T09:39:38;27.70;37.10
67870;DHT22;54673;52.262;6.830;2023-06-10T09:42:16;27.70;37.00
67870;DHT22;54673;52.262;6.830;2023-06-10T09:44:42;27.70;36.80
67870;DHT22;54673;52.262;6.830;2023-06-10T09:47:20;27.70;36.60
67870;DHT22;54673;52.262;6.830;2023-06-10T09:49:46;27.80;36.40
67870;DHT22;54673;52.262;6.830;2023-06-10T09:52:11;27.80;36.40
67870;DHT22;54673;52.262;6.830;2023-06-10T09:54:37;27.80;36.40
67870;DHT22;54673;52.262;6.830;2023-06-10T09:57:07;27.80;36.30
67870;DHT22;54673;52.262;6.830;2023-06-10T09:59:35;27.80;36.40
67870;DHT22;54673;52.262;6.830;2023-06-10T10:02:02;27.80;36.60
67870;DHT22;54673;52.262;6.830;2023-06-10T10:04:29;27.90;36.50
67870;DHT22;54673;52.262;6.830;2023-06-10T10:06:55;27.80;36.50
67870;DHT22;54673;52.262;6.830;2023-06-10T10:09:20;27.90;36.60
67870;DHT22;54673;52.262;6.830;2023-06-10T10:11:47;27.90;36.60
67870;DHT22;54673;52.262;6.830;2023-06-10T10:14:13;27.90;36.30
67870;DHT22;54673;52.262;6.830;2023-06-10T10:16:41;27.90;36.10
67870;DHT22;54673;52.262;6.830;2023-06-10T10:19:12;28.00;35.90
67870;DHT22;54673;52.262;6.830;2023-06-10T10:21:56;27.90;35.80
67870;DHT22;54673;52.262;6.830;2023-06-10T10:24:30;28.00;35.70
67870;DHT22;54673;52.262;6.830;2023-06-10T10:26:58;28.00;35.50
67870;DHT22;54673;52.262;6.830;2023-06-10T10:29:31;28.00;35.20
67870;DHT22;54673;52.262;6.830;2023-06-10T10:31:59;28.00;35.20
67870;DHT22;54673;52.262;6.830;2023-06-10T10:37:26;28.00;35.40
67870;DHT22;54673;52.262;6.830;2023-06-10T10:39:52;28.10;35.30
67870;DHT22;54673;52.262;6.830;2023-06-10T10:42:18;28.10;35.10
67870;DHT22;54673;52.262;6.830;2023-06-10T10:44:44;28.10;34.90
67870;DHT22;54673;52.262;6.830;2023-06-10T10:47:10;28.00;34.70
67870;DHT22;54673;52.262;6.830;2023-06-10T10:49:37;28.10;34.80
67870;DHT22;54673;52.262;6.830;2023-06-10T10:52:03;28.00;34.90
67870;DHT22;54673;52.262;6.830;2023-06-10T10:54:35;28.10;35.00
67870;DHT22;54673;52.262;6.830;2023-06-10T10:57:10;28.10;34.70
67870;DHT22;54673;52.262;6.830;2023-06-10T10:59:44;28.10;34.60
67870;DHT22;54673;52.262;6.830;2023-06-10T11:02:10;28.10;34.90
67870;DHT22;54673;52.262;6.830;2023-06-10T11:04:35;28.20;34.90
67870;DHT22;54673;52.262;6.830;2023-06-10T11:07:07;28.10;34.60
67870;DHT22;54673;52.262;6.830;2023-06-10T11:09:33;28.20;34.60
67870;DHT22;54673;52.262;6.830;2023-06-10T11:11:59;28.10;34.60
67870;DHT22;54673;52.262;6.830;2023-06-10T11:14:29;28.10;34.50
67870;DHT22;54673;52.262;6.830;2023-06-10T11:16:57;28.10;34.70
67870;DHT22;54673;52.262;6.830;2023-06-10T11:19:33;28.10;34.60
67870;DHT22;54673;52.262;6.830;2023-06-10T11:22:02;28.10;34.70
67870;DHT22;54673;52.262;6.830;2023-06-10T11:24:29;28.20;34.10
67870;DHT22;54673;52.262;6.830;2023-06-10T11:27:14;28.10;33.50
67870;DHT22;54673;52.262;6.830;2023-06-10T11:29:55;28.10;33.40
67870;DHT22;54673;52.262;6.830;2023-06-10T11:32:21;28.10;32.90
67870;DHT22;54673;52.262;6.830;2023-06-10T11:34:52;28.10;33.00
67870;DHT22;54673;52.262;6.830;2023-06-10T11:37:18;28.10;32.60
67870;DHT22;54673;52.262;6.830;2023-06-10T11:39:44;28.20;32.30
67870;DHT22;54673;52.262;6.830;2023-06-10T11:42:10;28.30;32.20
67870;DHT22;54673;52.262;6.830;2023-06-10T11:44:36;28.20;32.10
67870;DHT22;54673;52.262;6.830;2023-06-10T11:47:03;28.20;32.90
67870;DHT22;54673;52.262;6.830;2023-06-10T11:49:29;28.20;31.90
67870;DHT22;54673;52.262;6.830;2023-06-10T11:51:54;28.10;32.50
67870;DHT22;54673;52.262;6.830;2023-06-10T11:54:20;28.00;32.80
67870;DHT22;54673;52.262;6.830;2023-06-10T11:56:47;27.90;33.20
67870;DHT22;54673;52.262;6.830;2023-06-10T11:59:14;27.80;33.30
67870;DHT22;54673;52.262;6.830;2023-06-10T12:01:44;27.80;33.50
67870;DHT22;54673;52.262;6.830;2023-06-10T12:04:12;27.80;33.50
67870;DHT22;54673;52.262;6.830;2023-06-10T12:09:27;27.80;33.70
67870;DHT22;54673;52.262;6.830;2023-06-10T12:12:05;27.80;33.70
67870;DHT22;54673;52.262;6.830;2023-06-10T12:14:51;27.80;34.70
67870;DHT22;54673;52.262;6.830;2023-06-10T12:17:35;27.80;33.80
67870;DHT22;54673;52.262;6.830;2023-06-10T12:20:09;27.90;34.80
67870;DHT22;54673;52.262;6.830;2023-06-10T12:22:44;27.90;33.90
67870;DHT22;54673;52.262;6.830;2023-06-10T12:25:10;27.60;33.80
67870;DHT22;54673;52.262;6.830;2023-06-10T12:27:37;27.90;34.00
67870;DHT22;54673;52.262;6.830;2023-06-10T12:30:05;27.90;34.10
67870;DHT22;54673;52.262;6.830;2023-06-10T12:32:42;27.90;34.00
67870;DHT22;54673;52.262;6.830;2023-06-10T12:35:10;27.90;34.10
67870;DHT22;54673;52.262;6.830;2023-06-10T12:37:36;27.90;34.10
67870;DHT22;54673;52.262;6.830;2023-06-10T12:40:03;27.90;34.20
67870;DHT22;54673;52.262;6.830;2023-06-10T12:42:31;27.90;34.10
67870;DHT22;54673;52.262;6.830;2023-06-10T12:44:58;27.90;34.00
67870;DHT22;54673;52.262;6.830;2023-06-10T12:47:31;27.90;33.90
67870;DHT22;54673;52.262;6.830;2023-06-10T12:49:58;28.50;34.20
67870;DHT22;54673;52.262;6.830;2023-06-10T12:52:25;28.00;33.80
67870;DHT22;54673;52.262;6.830;2023-06-10T12:54:50;27.90;33.70
67870;DHT22;54673;52.262;6.830;2023-06-10T12:57:17;27.90;33.80
67870;DHT22;54673;52.262;6.830;2023-06-10T12:59:42;27.90;33.90
67870;DHT22;54673;52.262;6.830;2023-06-10T13:02:15;27.90;33.90
67870;DHT22;54673;52.262;6.830;2023-06-10T13:04:43;27.90;33.90
67870;DHT22;54673;52.262;6.830;2023-06-10T13:07:08;27.90;33.80
67870;DHT22;54673;52.262;6.830;2023-06-10T13:09:36;27.90;33.70
67870;DHT22;54673;52.262;6.830;2023-06-10T13:12:01;27.90;33.70
67870;DHT22;54673;52.262;6.830;2023-06-10T13:14:27;27.90;33.70
67870;DHT22;54673;52.262;6.830;2023-06-10T13:16:53;27.90;33.70
67870;DHT22;54673;52.262;6.830;2023-06-10T13:19:20;27.90;33.70
67870;DHT22;54673;52.262;6.830;2023-06-10T13:21:47;28.00;33.80
67870;DHT22;54673;52.262;6.830;2023-06-10T13:24:12;27.90;33.70
67870;DHT22;54673;52.262;6.830;2023-06-10T13:26:38;28.00;33.90
67870;DHT22;54673;52.262;6.830;2023-06-10T13:29:04;27.90;33.80
67870;DHT22;54673;52.262;6.830;2023-06-10T13:31:29;27.90;34.70
67870;DHT22;54673;52.262;6.830;2023-06-10T13:33:55;27.90;33.90
67870;DHT22;54673;52.262;6.830;2023-06-10T13:36:20;27.90;33.90
67870;DHT22;54673;52.262;6.830;2023-06-10T13:38:46;27.90;33.90
67870;DHT22;54673;52.262;6.830;2023-06-10T13:41:13;27.90;34.10
67870;DHT22;54673;52.262;6.830;2023-06-10T13:43:38;27.90;34.10
67870;DHT22;54673;52.262;6.830;2023-06-10T13:46:04;27.90;34.20
67870;DHT22;54673;52.262;6.830;2023-06-10T13:48:30;27.90;34.10
67870;DHT22;54673;52.262;6.830;2023-06-10T13:50:56;27.90;34.20
67870;DHT22;54673;52.262;6.830;2023-06-10T13:53:22;27.90;34.20
67870;DHT22;54673;52.262;6.830;2023-06-10T13:55:48;27.90;34.20
67870;DHT22;54673;52.262;6.830;2023-06-10T13:58:14;28.00;34.30
67870;DHT22;54673;52.262;6.830;2023-06-10T14:00:39;28.00;34.30
67870;DHT22;54673;52.262;6.830;2023-06-10T14:03:05;28.00;34.30
67870;DHT22;54673;52.262;6.830;2023-06-10T14:05:30;28.00;34.30
67870;DHT22;54673;52.262;6.830;2023-06-10T14:07:57;28.00;34.30
67870;DHT22;54673;52.262;6.830;2023-06-10T14:10:22;28.00;34.30
67870;DHT22;54673;52.262;6.830;2023-06-10T14:12:48;28.00;34.40
67870;DHT22;54673;52.262;6.830;2023-06-10T14:15:14;28.00;34.40
67870;DHT22;54673;52.262;6.830;2023-06-10T14:17:40;28.10;34.50
67870;DHT22;54673;52.262;6.830;2023-06-10T14:20:05;28.10;34.40
67870;DHT22;54673;52.262;6.830;2023-06-10T14:22:31;28.10;34.40
67870;DHT22;54673;52.262;6.830;2023-06-10T14:24:57;28.20;34.50
67870;DHT22;54673;52.262;6.830;2023-06-10T14:27:22;28.20;34.40
67870;DHT22;54673;52.262;6.830;2023-06-10T14:29:48;28.20;34.50
67870;DHT22;54673;52.262;6.830;2023-06-10T14:32:13;28.20;34.40
67870;DHT22;54673;52.262;6.830;2023-06-10T14:34:39;28.20;34.40
67870;DHT22;54673;52.262;6.830;2023-06-10T14:37:05;28.20;34.50
67870;DHT22;54673;52.262;6.830;2023-06-10T14:39:33;28.20;34.40
67870;DHT22;54673;52.262;6.830;2023-06-10T14:41:58;28.20;34.40
67870;DHT22;54673;52.262;6.830;2023-06-10T14:44:24;28.30;34.50
67870;DHT22;54673;52.262;6.830;2023-06-10T14:46:49;28.20;34.40
67870;DHT22;54673;52.262;6.830;2023-06-10T14:49:15;28.20;34.50
67870;DHT22;54673;52.262;6.830;2023-06-10T14:51:40;28.20;34.50
67870;DHT22;54673;52.262;6.830;2023-06-10T14:54:06;28.20;34.60
67870;DHT22;54673;52.262;6.830;2023-06-10T14:56:32;28.20;34.60
67870;DHT22;54673;52.262;6.830;2023-06-10T14:58:57;28.20;34.60
67870;DHT22;54673;52.262;6.830;2023-06-10T15:01:23;28.20;34.60
67870;DHT22;54673;52.262;6.830;2023-06-10T15:03:48;28.20;34.70
67870;DHT22;54673;52.262;6.830;2023-06-10T15:06:14;28.20;34.80
67870;DHT22;54673;52.262;6.830;2023-06-10T15:08:42;28.20;34.70
67870;DHT22;54673;52.262;6.830;2023-06-10T15:11:08;28.20;34.70
67870;DHT22;54673;52.262;6.830;2023-06-10T15:13:33;28.30;34.70
67870;DHT22;54673;52.262;6.830;2023-06-10T15:15:59;28.30;34.70
67870;DHT22;54673;52.262;6.830;2023-06-10T15:18:24;28.30;34.60
67870;DHT22;54673;52.262;6.830;2023-06-10T15:20:50;28.30;34.60
67870;DHT22;54673;52.262;6.830;2023-06-10T15:23:15;28.30;34.70
67870;DHT22;54673;52.262;6.830;2023-06-10T15:25:41;28.40;34.80
67870;DHT22;54673;52.262;6.830;2023-06-10T15:28:07;28.30;34.70
67870;DHT22;54673;52.262;6.830;2023-06-10T15:30:33;28.40;34.80
67870;DHT22;54673;52.262;6.830;2023-06-10T15:32:59;28.40;34.70
67870;DHT22;54673;52.262;6.830;2023-06-10T15:35:25;28.40;34.70
67870;DHT22;54673;52.262;6.830;2023-06-10T15:37:51;28.40;34.60
67870;DHT22;54673;52.262;6.830;2023-06-10T15:40:17;28.40;34.60